Time;durP1;ratioP1;P1;durP2;ratioP2;P2;SDS_P1;SDS_P2;PMS_P1;PMS_P2;Temp;Humidity;BMP_temperature;BMP_pressure;BME280_temperature;BME280_humidity;BME280_pressure;Samples;Min_cycle;Max_cycle;Signal;HPM_P1;HPM_P2
2024/03/30 00:00:54;;;;;;;40.03;6.85;;;12.30;99.90;;;;;;5006113;28;20088;-80
2024/03/30 00:03:20;;;;;;;53.67;6.15;;;12.30;99.90;;;;;;5007693;28;20515;-81
2024/03/30 00:05:46;;;;;;;47.95;6.45;;;12.30;99.90;;;;;;5004576;28;20033;-81
2024/03/30 00:08:13;;;;;;;33.28;7.50;;;12.30;99.90;;;;;;5008179;28;20034;-80
2024/03/30 00:10:40;;;;;;;37.38;5.75;;;12.30;99.90;;;;;;5007687;28;20014;-79
2024/03/30 00:13:07;;;;;;;49.10;6.13;;;12.30;99.90;;;;;;5005897;28;20033;-79
2024/03/30 00:15:33;;;;;;;51.00;7.10;;;12.30;99.90;;;;;;5008297;28;20504;-80
2024/03/30 00:17:59;;;;;;;38.63;6.05;;;12.30;99.90;;;;;;5006735;28;20033;-80
2024/03/30 00:20:27;;;;;;;57.00;7.55;;;12.30;99.90;;;;;;5004317;28;20026;-80
2024/03/30 00:22:53;;;;;;;43.97;5.60;;;12.30;99.90;;;;;;5003658;28;20095;-79
2024/03/30 00:25:20;;;;;;;39.90;5.00;;;12.30;99.90;;;;;;5009235;28;20058;-79
2024/03/30 00:27:45;;;;;;;46.20;6.38;;;12.30;99.90;;;;;;5007697;28;20022;-81
2024/03/30 00:30:11;;;;;;;43.13;5.60;;;12.30;99.90;;;;;;5003031;28;20033;-80
2024/03/30 00:32:36;;;;;;;62.33;7.93;;;12.30;99.90;;;;;;5007822;28;20052;-79
2024/03/30 00:35:05;;;;;;;61.22;5.53;;;12.30;99.90;;;;;;5006839;28;20025;-80
2024/03/30 00:37:34;;;;;;;34.45;5.13;;;12.30;99.90;;;;;;5010429;28;20026;-81
2024/03/30 00:39:59;;;;;;;35.92;5.57;;;12.30;99.90;;;;;;5014659;28;20018;-81
2024/03/30 00:42:26;;;;;;;41.90;7.00;;;12.30;99.90;;;;;;5005259;28;20049;-80
2024/03/30 00:44:52;;;;;;;31.88;6.10;;;12.30;99.90;;;;;;5003601;28;20026;-81
2024/03/30 00:47:18;;;;;;;32.80;5.05;;;12.30;99.90;;;;;;5007697;28;20037;-80
2024/03/30 00:49:44;;;;;;;51.22;4.57;;;12.30;99.90;;;;;;5007402;28;20045;-80
2024/03/30 00:52:09;;;;;;;40.15;4.32;;;12.30;99.90;;;;;;5009988;28;20438;-80
2024/03/30 00:54:35;;;;;;;36.63;4.25;;;12.30;99.90;;;;;;5011411;28;20105;-80
2024/03/30 00:57:00;;;;;;;34.92;5.05;;;12.30;99.90;;;;;;5010992;28;20017;-80
2024/03/30 00:59:26;;;;;;;37.03;3.95;;;12.30;99.90;;;;;;5007977;28;20080;-79
2024/03/30 01:01:51;;;;;;;31.38;4.13;;;12.30;99.90;;;;;;5010203;28;20030;-80
2024/03/30 01:04:17;;;;;;;35.08;4.10;;;12.30;99.90;;;;;;5012430;28;20022;-81
2024/03/30 01:06:45;;;;;;;40.72;3.97;;;12.30;99.90;;;;;;5009162;28;20022;-80
2024/03/30 01:09:11;;;;;;;31.08;4.45;;;12.30;99.90;;;;;;5011294;28;20022;-79
2024/03/30 01:11:37;;;;;;;38.10;4.53;;;12.30;99.90;;;;;;5011039;28;20033;-80
2024/03/30 01:14:03;;;;;;;30.95;4.80;;;12.30;99.90;;;;;;5010636;28;20543;-81
2024/03/30 01:16:29;;;;;;;28.77;4.05;;;12.30;99.90;;;;;;5004565;28;20113;-82
2024/03/30 01:18:56;;;;;;;42.67;4.28;;;12.30;99.90;;;;;;5010929;28;20022;-82
2024/03/30 01:21:22;;;;;;;22.48;3.10;;;12.30;99.90;;;;;;5004407;28;20019;-82
2024/03/30 01:23:47;;;;;;;40.17;4.60;;;12.30;99.90;;;;;;5010769;28;20073;-82
2024/03/30 01:26:15;;;;;;;32.25;3.30;;;12.30;99.90;;;;;;5009410;28;20055;-80
2024/03/30 01:28:42;;;;;;;26.35;3.25;;;12.30;99.90;;;;;;5010615;28;20105;-79
2024/03/30 01:31:10;;;;;;;17.15;2.90;;;12.30;99.90;;;;;;5009047;28;20022;-79
2024/03/30 01:33:36;;;;;;;15.57;3.08;;;12.30;99.90;;;;;;5010066;28;20397;-79
2024/03/30 01:36:02;;;;;;;15.45;3.58;;;12.30;99.90;;;;;;5010323;28;20484;-80
2024/03/30 01:38:30;;;;;;;14.48;2.60;;;12.30;99.90;;;;;;5013831;28;20026;-80
2024/03/30 01:40:55;;;;;;;28.95;2.97;;;12.30;99.90;;;;;;5009174;28;20060;-79
2024/03/30 01:43:21;;;;;;;23.52;3.65;;;12.30;99.90;;;;;;5011036;28;20112;-80
2024/03/30 01:45:47;;;;;;;23.98;2.78;;;12.30;99.90;;;;;;5009701;28;20026;-80
2024/03/30 01:48:13;;;;;;;23.83;2.83;;;12.30;99.90;;;;;;5010190;28;20022;-80
2024/03/30 01:50:41;;;;;;;18.67;2.80;;;12.30;99.90;;;;;;5012334;28;20014;-80
2024/03/30 01:53:09;;;;;;;20.75;2.80;;;12.30;99.90;;;;;;5008962;28;20064;-79
2024/03/30 01:55:36;;;;;;;24.15;2.63;;;12.30;99.90;;;;;;5005220;28;20392;-80
2024/03/30 01:58:03;;;;;;;14.95;2.65;;;12.30;99.90;;;;;;5010590;28;20484;-80
2024/03/30 02:00:30;;;;;;;26.52;3.75;;;12.30;99.90;;;;;;5009065;28;20029;-81
2024/03/30 02:02:58;;;;;;;34.83;3.67;;;12.30;99.90;;;;;;5005970;28;20648;-79
2024/03/30 02:05:24;;;;;;;32.88;3.10;;;12.30;99.90;;;;;;5010641;28;20022;-81
2024/03/30 02:07:50;;;;;;;14.65;2.40;;;12.30;99.90;;;;;;5009691;28;20084;-80
2024/03/30 02:10:15;;;;;;;24.45;2.42;;;12.30;99.90;;;;;;5007728;28;20037;-79
2024/03/30 02:12:41;;;;;;;16.00;3.38;;;12.30;99.90;;;;;;5009896;28;20026;-79
2024/03/30 02:15:08;;;;;;;21.83;2.83;;;12.30;99.90;;;;;;5009963;28;20475;-79
2024/03/30 02:17:34;;;;;;;22.98;2.22;;;12.30;99.90;;;;;;5007054;28;20030;-80
2024/03/30 02:19:59;;;;;;;25.58;2.47;;;12.30;99.90;;;;;;5008993;28;20072;-80
2024/03/30 02:22:25;;;;;;;35.58;3.35;;;12.30;99.90;;;;;;5010401;28;20037;-81
2024/03/30 02:24:50;;;;;;;13.40;2.85;;;12.30;99.90;;;;;;5009208;28;20038;-79
2024/03/30 02:27:16;;;;;;;19.95;3.35;;;12.30;99.90;;;;;;5010089;28;20017;-80
2024/03/30 02:29:49;;;;;;;17.73;2.33;;;12.30;99.90;;;;;;5010926;28;20014;-79
2024/03/30 02:32:15;;;;;;;23.38;3.03;;;12.30;99.90;;;;;;5010174;28;20021;-78
2024/03/30 02:34:42;;;;;;;27.00;3.40;;;12.30;99.90;;;;;;5007586;28;20104;-79
2024/03/30 02:37:08;;;;;;;25.25;2.70;;;12.30;99.90;;;;;;5011736;28;20029;-80
2024/03/30 02:39:34;;;;;;;13.50;3.90;;;12.30;99.90;;;;;;5008121;28;20026;-81
2024/03/30 02:41:59;;;;;;;21.35;3.80;;;12.30;99.90;;;;;;5009184;28;20415;-79
2024/03/30 02:44:25;;;;;;;11.73;2.03;;;12.30;99.90;;;;;;5009863;28;20112;-80
2024/03/30 02:46:50;;;;;;;18.45;2.78;;;12.30;99.90;;;;;;5009743;28;20060;-79
2024/03/30 02:49:16;;;;;;;15.63;2.80;;;12.30;99.90;;;;;;5009129;28;20029;-80
2024/03/30 02:51:42;;;;;;;12.38;1.65;;;12.30;99.90;;;;;;5009908;28;20455;-80
2024/03/30 02:54:07;;;;;;;15.93;3.00;;;12.30;99.90;;;;;;5010608;28;20030;-79
2024/03/30 02:56:33;;;;;;;14.95;2.22;;;12.30;99.90;;;;;;5008033;28;20018;-80
2024/03/30 02:58:59;;;;;;;22.63;2.67;;;12.30;99.90;;;;;;5009198;28;20036;-80
2024/03/30 03:01:25;;;;;;;11.90;2.63;;;12.30;99.90;;;;;;5011129;28;20048;-79
2024/03/30 03:03:51;;;;;;;11.75;2.40;;;12.30;99.90;;;;;;5007442;28;20476;-80
2024/03/30 03:06:17;;;;;;;24.05;2.60;;;12.30;99.90;;;;;;5006920;28;20101;-79
2024/03/30 03:08:42;;;;;;;21.23;3.00;;;12.30;99.90;;;;;;5010518;28;20113;-81
2024/03/30 03:11:08;;;;;;;9.90;2.92;;;12.30;99.90;;;;;;5008896;28;20022;-79
2024/03/30 03:13:33;;;;;;;21.48;2.70;;;12.30;99.90;;;;;;5008630;28;20026;-80
2024/03/30 03:16:06;;;;;;;15.25;2.20;;;12.30;99.90;;;;;;5009486;28;20017;-82
2024/03/30 03:18:32;;;;;;;11.00;2.65;;;12.30;99.90;;;;;;5005279;28;20021;-80
2024/03/30 03:20:57;;;;;;;10.95;2.25;;;12.30;99.90;;;;;;5006609;28;20113;-80
2024/03/30 03:23:25;;;;;;;10.57;1.83;;;12.30;99.90;;;;;;5010696;28;20056;-80
2024/03/30 03:25:51;;;;;;;13.45;1.92;;;12.30;99.90;;;;;;5009124;28;20029;-80
2024/03/30 03:28:17;;;;;;;18.90;2.10;;;12.30;99.90;;;;;;5008788;28;20029;-80
2024/03/30 03:30:42;;;;;;;19.77;2.22;;;12.40;99.90;;;;;;5008467;28;20026;-79
2024/03/30 03:33:08;;;;;;;12.85;2.45;;;12.30;99.90;;;;;;5009506;28;20010;-79
2024/03/30 03:35:34;;;;;;;10.43;1.88;;;12.30;99.90;;;;;;5006927;28;20049;-80
2024/03/30 03:37:59;;;;;;;8.45;2.00;;;12.40;99.90;;;;;;5008862;28;20117;-82
2024/03/30 03:40:25;;;;;;;9.90;1.85;;;12.40;99.90;;;;;;5008823;28;20021;-79
2024/03/30 03:42:51;;;;;;;10.30;2.35;;;12.40;99.90;;;;;;5007711;28;20030;-79
2024/03/30 03:45:16;;;;;;;15.25;2.22;;;12.30;99.90;;;;;;5009012;28;20018;-82
2024/03/30 03:47:42;;;;;;;13.70;2.15;;;12.40;99.90;;;;;;5010119;28;20443;-80
2024/03/30 03:50:08;;;;;;;15.98;2.10;;;12.40;99.90;;;;;;5008315;28;20088;-80
2024/03/30 03:52:33;;;;;;;7.00;2.17;;;12.30;99.90;;;;;;5004326;28;20109;-81
2024/03/30 03:54:59;;;;;;;9.80;1.90;;;12.40;99.90;;;;;;5010208;28;20022;-81
2024/03/30 03:57:24;;;;;;;4.88;1.48;;;12.30;99.90;;;;;;5008781;28;20042;-79
2024/03/30 03:59:50;;;;;;;15.10;2.42;;;12.40;99.90;;;;;;5008492;28;20049;-80
2024/03/30 04:02:16;;;;;;;10.70;2.53;;;12.30;99.90;;;;;;5008532;28;20022;-79
2024/03/30 04:04:42;;;;;;;15.90;1.50;;;12.30;99.90;;;;;;5008817;28;20022;-81
2024/03/30 04:07:07;;;;;;;8.80;2.03;;;12.30;99.90;;;;;;5006446;28;20109;-80
2024/03/30 04:09:33;;;;;;;11.57;2.45;;;12.30;99.90;;;;;;5009817;28;20061;-81
2024/03/30 04:11:58;;;;;;;6.18;1.52;;;12.30;99.90;;;;;;5008515;28;20018;-79
2024/03/30 04:14:24;;;;;;;13.07;2.13;;;12.30;99.90;;;;;;5006262;28;20049;-79
2024/03/30 04:16:49;;;;;;;8.63;1.73;;;12.30;99.90;;;;;;5008742;28;20364;-80
2024/03/30 04:19:17;;;;;;;12.38;2.20;;;12.30;99.90;;;;;;5008366;28;20076;-80
2024/03/30 04:21:44;;;;;;;17.02;3.08;;;12.30;99.90;;;;;;5005247;28;20395;-81
2024/03/30 04:24:11;;;;;;;10.18;2.25;;;12.30;99.90;;;;;;5009156;28;20064;-80
2024/03/30 04:26:37;;;;;;;13.13;2.33;;;12.30;99.90;;;;;;5013504;28;20029;-80
2024/03/30 04:29:02;;;;;;;10.80;1.63;;;12.30;99.90;;;;;;5007796;28;20022;-79
2024/03/30 04:31:28;;;;;;;9.25;2.75;;;12.30;99.90;;;;;;5012240;28;20032;-78
2024/03/30 04:33:53;;;;;;;14.57;1.90;;;12.30;99.90;;;;;;5013692;28;20022;-82
2024/03/30 04:36:19;;;;;;;9.57;2.00;;;12.30;99.90;;;;;;5011764;28;20057;-80
2024/03/30 04:38:44;;;;;;;11.07;2.58;;;12.30;99.90;;;;;;5012788;28;20510;-79
2024/03/30 04:41:10;;;;;;;18.88;2.20;;;12.30;99.90;;;;;;5013471;28;20021;-79
2024/03/30 04:43:36;;;;;;;19.60;2.25;;;12.30;99.90;;;;;;5012849;28;20552;-79
2024/03/30 04:46:04;;;;;;;10.02;2.97;;;12.30;99.90;;;;;;5011705;28;20113;-80
2024/03/30 04:48:30;;;;;;;11.35;2.92;;;12.30;99.90;;;;;;5011793;28;20022;-80
2024/03/30 04:50:59;;;;;;;9.25;1.50;;;12.30;99.90;;;;;;5012930;28;20538;-79
2024/03/30 04:53:28;;;;;;;19.15;2.85;;;12.30;99.90;;;;;;5011971;28;20022;-78
2024/03/30 04:55:56;;;;;;;15.75;2.25;;;12.30;99.90;;;;;;5011915;28;20026;-82
2024/03/30 04:58:24;;;;;;;17.60;2.75;;;12.30;99.90;;;;;;5011391;28;20080;-80
2024/03/30 05:00:50;;;;;;;9.02;2.42;;;12.30;99.90;;;;;;5010409;28;20117;-80
2024/03/30 05:03:16;;;;;;;12.73;2.78;;;12.30;99.90;;;;;;5012921;28;20029;-79
2024/03/30 05:05:43;;;;;;;17.88;2.75;;;12.30;99.90;;;;;;5012678;28;20590;-78
2024/03/30 05:08:10;;;;;;;6.68;1.88;;;12.30;99.90;;;;;;5011242;28;20112;-79
2024/03/30 05:10:37;;;;;;;18.55;2.60;;;12.30;99.90;;;;;;5011625;28;20045;-80
2024/03/30 05:13:04;;;;;;;14.80;2.33;;;12.30;99.90;;;;;;5011414;28;20018;-80
2024/03/30 05:15:40;;;;;;;12.20;2.40;;;12.30;99.90;;;;;;5012378;28;20010;-80
2024/03/30 05:18:08;;;;;;;9.00;2.13;;;12.30;99.90;;;;;;5009998;28;20554;-79
2024/03/30 05:20:50;;;;;;;16.25;2.58;;;12.30;99.90;;;;;;5012679;28;20018;-80
2024/03/30 05:23:17;;;;;;;16.13;2.47;;;12.30;99.90;;;;;;5011387;28;20025;-81
2024/03/30 05:25:43;;;;;;;17.92;3.03;;;12.30;99.90;;;;;;5008899;28;20022;-80
2024/03/30 05:28:10;;;;;;;10.57;2.28;;;12.30;99.90;;;;;;5012381;28;20033;-79
2024/03/30 05:30:36;;;;;;;16.90;2.22;;;12.30;99.90;;;;;;5012527;28;20399;-78
2024/03/30 05:33:01;;;;;;;18.95;3.33;;;12.50;99.90;;;;;;5009983;28;20030;-78
2024/03/30 05:35:27;;;;;;;13.18;2.45;;;12.40;99.90;;;;;;5011732;28;20581;-79
2024/03/30 05:37:52;;;;;;;11.85;2.38;;;12.30;99.90;;;;;;5014063;28;20037;-79
2024/03/30 05:40:18;;;;;;;16.45;2.58;;;12.30;99.90;;;;;;5010112;28;20050;-78
2024/03/30 05:42:43;;;;;;;22.27;3.13;;;12.30;99.90;;;;;;5012134;28;20581;-81
2024/03/30 05:45:09;;;;;;;18.05;2.15;;;12.30;99.90;;;;;;5010394;28;20165;-79
2024/03/30 05:47:34;;;;;;;17.58;2.17;;;12.30;99.90;;;;;;5010900;28;20116;-80
2024/03/30 05:50:00;;;;;;;14.77;2.28;;;12.30;99.90;;;;;;5011902;28;20018;-78
2024/03/30 05:52:26;;;;;;;17.75;2.55;;;12.30;99.90;;;;;;5010629;28;20096;-79
2024/03/30 05:54:52;;;;;;;12.27;2.33;;;12.30;99.90;;;;;;5010593;28;20069;-78
2024/03/30 05:57:17;;;;;;;14.52;2.55;;;12.30;99.90;;;;;;5010140;28;20029;-80
2024/03/30 05:59:43;;;;;;;14.57;3.65;;;12.30;99.90;;;;;;5011935;28;20030;-81
2024/03/30 06:02:08;;;;;;;22.02;2.22;;;12.30;99.90;;;;;;5010115;28;20048;-80
2024/03/30 06:04:34;;;;;;;13.63;2.28;;;12.30;99.90;;;;;;5009107;28;20049;-81
2024/03/30 06:06:59;;;;;;;12.52;2.08;;;12.30;99.90;;;;;;5010502;28;20026;-81
2024/03/30 06:09:25;;;;;;;18.02;2.63;;;12.30;99.90;;;;;;5011633;28;20022;-81
2024/03/30 06:11:51;;;;;;;15.02;2.50;;;12.30;99.90;;;;;;5009385;28;20068;-80
2024/03/30 06:14:16;;;;;;;15.43;2.30;;;12.30;99.90;;;;;;5011419;28;20488;-81
2024/03/30 06:16:47;;;;;;;22.30;2.83;;;12.30;99.90;;;;;;5011467;28;20092;-80
2024/03/30 06:19:12;;;;;;;15.80;2.65;;;12.30;99.90;;;;;;5007153;28;20022;-80
2024/03/30 06:21:38;;;;;;;8.70;2.20;;;12.30;99.90;;;;;;5008844;28;20018;-79
2024/03/30 06:24:04;;;;;;;18.55;3.47;;;12.30;99.90;;;;;;5011217;28;20113;-80
2024/03/30 06:26:29;;;;;;;17.75;2.92;;;12.40;99.90;;;;;;5009677;28;20459;-80
2024/03/30 06:28:55;;;;;;;17.77;2.40;;;12.40;99.90;;;;;;5009782;28;20522;-78
2024/03/30 06:31:20;;;;;;;16.77;2.50;;;12.40;99.90;;;;;;5005389;28;20428;-78
2024/03/30 06:33:46;;;;;;;22.25;3.20;;;12.40;99.90;;;;;;5009360;28;20109;-79
2024/03/30 06:36:11;;;;;;;15.00;2.97;;;12.40;99.90;;;;;;5010199;28;20075;-78
2024/03/30 06:38:37;;;;;;;15.07;2.70;;;12.40;99.90;;;;;;5010586;28;20036;-79
2024/03/30 06:43:47;;;;;;;14.32;3.10;;;12.40;99.90;;;;;;5009401;28;20096;-79
2024/03/30 06:46:12;;;;;;;29.92;2.80;;;12.40;99.90;;;;;;5010494;28;20034;-79
2024/03/30 06:48:38;;;;;;;15.55;3.53;;;12.40;99.90;;;;;;5008662;28;20022;-80
2024/03/30 06:51:04;;;;;;;9.25;2.28;;;12.50;99.90;;;;;;5010506;28;20045;-80
2024/03/30 06:53:30;;;;;;;17.90;3.15;;;12.50;99.90;;;;;;5010960;28;20773;-79
2024/03/30 06:55:55;;;;;;;14.52;3.47;;;12.50;99.90;;;;;;5009384;28;20084;-79
2024/03/30 06:58:21;;;;;;;17.50;3.45;;;12.50;99.90;;;;;;5009372;28;20109;-80
2024/03/30 07:00:48;;;;;;;17.48;2.58;;;12.50;99.90;;;;;;5009383;28;20068;-80
2024/03/30 07:03:14;;;;;;;24.58;3.72;;;12.50;99.90;;;;;;5009561;28;20396;-80
2024/03/30 07:05:41;;;;;;;25.00;3.95;;;12.50;99.90;;;;;;5009384;28;20017;-80
2024/03/30 07:08:07;;;;;;;20.20;3.10;;;12.60;99.90;;;;;;5009915;28;20097;-79
2024/03/30 07:10:33;;;;;;;9.65;3.00;;;12.50;99.90;;;;;;5009275;28;20116;-79
2024/03/30 07:12:58;;;;;;;15.90;2.75;;;12.60;99.90;;;;;;5010340;28;20048;-81
2024/03/30 07:15:24;;;;;;;16.17;2.92;;;12.60;99.90;;;;;;5010375;28;20022;-81
2024/03/30 07:17:49;;;;;;;14.80;2.65;;;12.60;99.90;;;;;;5010602;28;20022;-80
2024/03/30 07:20:15;;;;;;;12.88;2.85;;;12.60;99.90;;;;;;5007585;28;20017;-82
2024/03/30 07:22:41;;;;;;;25.48;4.13;;;12.70;99.90;;;;;;5009872;28;20022;-80
2024/03/30 07:25:07;;;;;;;20.75;3.97;;;12.70;99.90;;;;;;5010697;28;20030;-80
2024/03/30 07:27:33;;;;;;;15.07;3.10;;;12.70;99.90;;;;;;5008999;28;20113;-80
2024/03/30 07:29:59;;;;;;;11.63;3.30;;;12.80;99.90;;;;;;5009854;28;20093;-78
2024/03/30 07:32:25;;;;;;;16.83;3.03;;;12.80;99.90;;;;;;5010163;28;20101;-80
2024/03/30 07:34:50;;;;;;;21.15;3.58;;;12.80;99.90;;;;;;5010223;28;20100;-79
2024/03/30 07:37:16;;;;;;;21.27;3.05;;;12.90;99.90;;;;;;5011686;28;20017;-81
2024/03/30 07:39:43;;;;;;;20.63;3.55;;;12.90;99.90;;;;;;5010139;28;20110;-77
2024/03/30 07:42:09;;;;;;;20.55;3.33;;;12.90;99.90;;;;;;5010351;28;20026;-78
2024/03/30 07:44:35;;;;;;;21.75;2.78;;;12.90;99.90;;;;;;5009657;28;20040;-79
2024/03/30 07:47:07;;;;;;;25.88;2.78;;;13.00;99.90;;;;;;5009947;28;20029;-78
2024/03/30 07:49:33;;;;;;;22.73;3.90;;;13.00;99.90;;;;;;5009948;28;20527;-80
2024/03/30 07:52:00;;;;;;;18.67;3.40;;;13.00;99.90;;;;;;5009513;28;20034;-79
2024/03/30 07:54:26;;;;;;;14.63;3.17;;;13.10;99.90;;;;;;5010003;28;20026;-78
2024/03/30 07:56:55;;;;;;;22.92;3.53;;;13.10;99.90;;;;;;5008806;28;20018;-77
2024/03/30 07:59:23;;;;;;;12.07;2.83;;;13.20;99.90;;;;;;5004982;28;20049;-78
2024/03/30 08:01:49;;;;;;;18.08;3.08;;;13.20;99.90;;;;;;5008699;28;20037;-80
2024/03/30 08:04:15;;;;;;;25.52;3.65;;;13.30;99.90;;;;;;5009894;28;20520;-80
2024/03/30 08:06:45;;;;;;;18.48;3.22;;;13.30;99.90;;;;;;5009332;28;20038;-80
2024/03/30 08:09:12;;;;;;;17.17;2.33;;;13.30;99.90;;;;;;5008251;28;20527;-78
2024/03/30 08:11:40;;;;;;;16.88;2.90;;;13.30;99.90;;;;;;5009531;28;20091;-77
2024/03/30 08:14:06;;;;;;;22.58;4.78;;;13.40;99.90;;;;;;5009767;28;20098;-80
2024/03/30 08:16:32;;;;;;;25.48;2.88;;;13.50;99.90;;;;;;5008018;28;20096;-81
2024/03/30 08:18:58;;;;;;;20.42;4.57;;;13.50;99.90;;;;;;5007126;28;20559;-81
2024/03/30 08:21:24;;;;;;;25.20;3.40;;;13.60;99.90;;;;;;5007498;28;20124;-80
2024/03/30 08:23:53;;;;;;;24.08;3.78;;;13.60;99.90;;;;;;5009856;28;20034;-80
2024/03/30 08:26:18;;;;;;;25.63;3.85;;;13.60;99.90;;;;;;5009578;28;20032;-80
2024/03/30 08:28:47;;;;;;;14.82;4.00;;;13.70;99.90;;;;;;5008109;28;20026;-81
2024/03/30 08:31:13;;;;;;;31.10;4.03;;;13.70;99.90;;;;;;5009786;28;20158;-80
2024/03/30 08:33:39;;;;;;;23.67;3.67;;;13.80;99.90;;;;;;5008048;28;20026;-80
2024/03/30 08:36:05;;;;;;;36.38;4.75;;;13.90;99.90;;;;;;5009454;28;20030;-80
2024/03/30 08:38:31;;;;;;;26.73;3.83;;;13.90;99.90;;;;;;5009335;28;20018;-78
2024/03/30 08:40:56;;;;;;;22.02;3.53;;;14.00;99.90;;;;;;5008528;28;20057;-80
2024/03/30 08:43:25;;;;;;;23.85;3.95;;;14.10;99.90;;;;;;5009333;28;20056;-80
2024/03/30 08:45:54;;;;;;;24.40;3.67;;;14.10;99.90;;;;;;5008141;28;20079;-80
2024/03/30 08:48:20;;;;;;;26.85;3.75;;;14.20;99.90;;;;;;5007969;28;20025;-79
2024/03/30 08:50:46;;;;;;;41.22;5.13;;;14.30;99.90;;;;;;5008257;28;20072;-81
2024/03/30 08:53:12;;;;;;;38.33;5.07;;;14.30;99.90;;;;;;5008244;28;20026;-79
2024/03/30 08:55:38;;;;;;;40.38;6.22;;;14.40;99.90;;;;;;5009049;28;20037;-80
2024/03/30 08:58:06;;;;;;;27.35;4.30;;;14.40;99.90;;;;;;5009059;28;20029;-80
2024/03/30 09:00:32;;;;;;;35.10;5.10;;;14.40;99.90;;;;;;5008138;28;20026;-80
2024/03/30 09:02:58;;;;;;;23.42;4.25;;;14.50;99.90;;;;;;5007994;28;20037;-80
2024/03/30 09:05:24;;;;;;;38.03;5.22;;;14.50;99.90;;;;;;5007970;28;20026;-81
2024/03/30 09:07:49;;;;;;;33.40;4.65;;;14.50;99.90;;;;;;5006883;28;20030;-80
2024/03/30 09:10:15;;;;;;;38.13;4.93;;;14.50;99.90;;;;;;5008776;28;20052;-79
2024/03/30 09:12:41;;;;;;;34.85;5.25;;;14.50;99.90;;;;;;5010590;28;20018;-80
2024/03/30 09:15:07;;;;;;;27.08;5.15;;;14.50;99.90;;;;;;5011169;28;20026;-78
2024/03/30 09:17:32;;;;;;;47.95;4.72;;;14.50;99.90;;;;;;5011142;28;20028;-79
2024/03/30 09:20:00;;;;;;;35.38;5.85;;;14.40;99.90;;;;;;5011106;28;20042;-79
2024/03/30 09:22:26;;;;;;;37.38;4.25;;;14.40;99.90;;;;;;5012641;28;20017;-81
2024/03/30 09:24:54;;;;;;;24.50;3.65;;;14.30;99.90;;;;;;5011189;28;20026;-79
2024/03/30 09:27:19;;;;;;;23.98;4.10;;;14.30;99.90;;;;;;5011157;28;20052;-79
2024/03/30 09:29:45;;;;;;;35.22;4.30;;;14.30;99.90;;;;;;5010838;28;20018;-81
2024/03/30 09:32:11;;;;;;;38.30;4.80;;;14.20;99.90;;;;;;5011100;28;20112;-79
2024/03/30 09:34:36;;;;;;;21.63;4.82;;;14.20;99.90;;;;;;5011829;28;20022;-79
2024/03/30 09:37:07;;;;;;;45.55;4.57;;;14.10;99.90;;;;;;5009691;28;20023;-80
2024/03/30 09:39:39;;;;;;;39.22;5.40;;;14.00;99.90;;;;;;5009699;28;20018;-80
2024/03/30 09:42:07;;;;;;;25.95;3.50;;;13.90;99.90;;;;;;5010207;28;20093;-78
2024/03/30 09:44:36;;;;;;;31.90;4.03;;;13.70;99.90;;;;;;5010363;28;20021;-80
2024/03/30 09:47:03;;;;;;;25.33;3.50;;;13.70;99.90;;;;;;5009632;28;20034;-79
2024/03/30 09:49:33;;;;;;;24.13;3.58;;;13.60;99.90;;;;;;5011321;28;20500;-80
2024/03/30 09:52:04;;;;;;;22.25;3.90;;;13.60;99.90;;;;;;5010729;28;20037;-80
2024/03/30 09:54:30;;;;;;;25.73;4.47;;;13.60;99.90;;;;;;5011337;28;20041;-77
2024/03/30 09:56:57;;;;;;;32.78;4.20;;;13.50;99.90;;;;;;5010158;28;20057;-79
2024/03/30 09:59:23;;;;;;;16.73;3.72;;;13.50;99.90;;;;;;5012168;28;20392;-81
2024/03/30 10:01:48;;;;;;;21.95;3.95;;;13.50;99.90;;;;;;5010605;28;20511;-81
2024/03/30 10:04:14;;;;;;;14.25;3.47;;;13.40;99.90;;;;;;5011296;28;20034;-81
2024/03/30 10:06:48;;;;;;;18.17;3.70;;;13.40;99.90;;;;;;5011493;28;20384;-79
2024/03/30 10:09:15;;;;;;;21.35;2.95;;;13.40;99.90;;;;;;5009199;28;20030;-81
2024/03/30 10:11:43;;;;;;;17.48;2.90;;;13.40;99.90;;;;;;5009354;28;20018;-79
2024/03/30 10:14:31;;;;;;;16.38;3.08;;;13.40;99.90;;;;;;5011869;28;20033;-80
2024/03/30 10:16:57;;;;;;;25.05;3.80;;;13.40;99.90;;;;;;5011548;28;20029;-80
2024/03/30 10:19:23;;;;;;;28.77;4.18;;;13.50;99.90;;;;;;5010257;28;20022;-80
2024/03/30 10:21:49;;;;;;;24.63;3.63;;;13.60;99.90;;;;;;5010943;28;20033;-82
2024/03/30 10:24:16;;;;;;;21.02;3.40;;;13.60;99.90;;;;;;5011369;28;20037;-81
2024/03/30 10:26:42;;;;;;;21.77;3.70;;;13.60;99.90;;;;;;5009423;28;20032;-81
2024/03/30 10:29:11;;;;;;;38.03;4.25;;;13.60;99.90;;;;;;5008853;28;20407;-78
2024/03/30 10:31:38;;;;;;;16.30;3.38;;;13.70;99.90;;;;;;5012569;28;20100;-79
2024/03/30 10:34:04;;;;;;;24.45;3.45;;;13.80;99.90;;;;;;5007701;28;20113;-80
2024/03/30 10:36:30;;;;;;;24.27;3.25;;;13.90;99.90;;;;;;5010671;28;20564;-82
2024/03/30 10:38:59;;;;;;;22.42;3.70;;;14.00;99.90;;;;;;5009775;28;20507;-81
2024/03/30 10:41:28;;;;;;;20.50;3.78;;;14.10;99.90;;;;;;5009915;28;20018;-81
2024/03/30 10:43:54;;;;;;;28.52;4.60;;;14.30;99.90;;;;;;5009201;28;20053;-81
2024/03/30 10:46:20;;;;;;;32.03;4.50;;;14.40;99.90;;;;;;5007419;28;20026;-81
2024/03/30 10:48:46;;;;;;;27.23;3.72;;;14.60;99.90;;;;;;5009334;28;20024;-80
2024/03/30 10:51:12;;;;;;;25.30;4.18;;;14.80;99.90;;;;;;5009793;28;20029;-81
2024/03/30 10:53:37;;;;;;;23.98;3.53;;;14.90;99.90;;;;;;5008261;28;20049;-79
2024/03/30 10:56:03;;;;;;;32.67;3.55;;;15.10;99.90;;;;;;5008357;28;20026;-81
2024/03/30 10:58:30;;;;;;;30.55;4.03;;;15.20;99.90;;;;;;5009793;28;20149;-80
2024/03/30 11:00:57;;;;;;;33.33;4.90;;;15.40;99.90;;;;;;5008852;28;20124;-81
2024/03/30 11:03:24;;;;;;;42.60;4.90;;;15.40;99.90;;;;;;5009042;28;20032;-81
2024/03/30 11:05:52;;;;;;;31.50;4.07;;;15.50;97.10;;;;;;5009352;28;20491;-82
2024/03/30 11:08:19;;;;;;;62.40;5.80;;;15.60;75.80;;;;;;5009434;28;20121;-81
2024/03/30 11:10:45;;;;;;;45.35;4.28;;;15.50;78.00;;;;;;5010662;28;20030;-82
2024/03/30 11:13:10;;;;;;;35.28;3.90;;;15.60;73.00;;;;;;5010375;28;20079;-81
2024/03/30 11:15:42;;;;;;;46.05;4.10;;;15.50;72.20;;;;;;5008798;28;20639;-81
2024/03/30 11:18:26;;;;;;;33.55;3.97;;;15.30;72.90;;;;;;5007909;28;20071;-81
2024/03/30 11:21:02;;;;;;;60.83;5.40;;;15.20;70.80;;;;;;5007867;28;20379;-80
2024/03/30 11:23:40;;;;;;;43.15;4.05;;;15.30;70.80;;;;;;5006913;28;20525;-80
2024/03/30 11:26:10;;;;;;;38.92;4.63;;;15.40;68.60;;;;;;5010297;28;20487;-80
2024/03/30 11:29:08;;;;;;;34.88;3.83;;;15.30;70.10;;;;;;5008456;28;20045;-81
2024/03/30 11:31:48;;;;;;;41.72;5.72;;;15.40;67.90;;;;;;5005021;28;20052;-79
2024/03/30 11:34:19;;;;;;;43.80;5.40;;;15.50;67.50;;;;;;5006665;28;20019;-82
2024/03/30 11:37:15;;;;;;;30.70;4.60;;;15.70;65.20;;;;;;5008976;28;20758;-82
2024/03/30 11:39:51;;;;;;;41.60;5.10;;;15.90;64.70;;;;;;5006874;28;20026;-79
2024/03/30 11:42:24;;;;;;;55.60;6.25;;;15.90;62.20;;;;;;5010277;28;20046;-80
2024/03/30 11:44:51;;;;;;;39.03;4.80;;;16.00;60.20;;;;;;5007097;28;20025;-80
2024/03/30 11:47:17;;;;;;;38.88;5.25;;;16.10;63.00;;;;;;5008453;28;20021;-81
2024/03/30 11:49:44;;;;;;;44.30;5.43;;;16.10;60.30;;;;;;5009800;28;20018;-82
2024/03/30 11:52:13;;;;;;;38.72;4.43;;;16.20;59.70;;;;;;5006657;28;20067;-81
2024/03/30 11:54:38;;;;;;;43.55;5.07;;;16.10;59.80;;;;;;5008496;28;20772;-81
2024/03/30 11:57:14;;;;;;;39.55;5.50;;;16.10;58.50;;;;;;5010011;28;20022;-81
2024/03/30 11:59:42;;;;;;;36.00;4.70;;;16.10;57.80;;;;;;5008498;28;20387;-80
2024/03/30 12:02:09;;;;;;;42.42;4.00;;;16.10;58.40;;;;;;5007057;28;20029;-81
2024/03/30 12:04:42;;;;;;;41.80;4.10;;;16.10;57.20;;;;;;5009853;28;20081;-81
2024/03/30 12:07:09;;;;;;;26.27;3.53;;;16.30;56.40;;;;;;5008987;28;20771;-83
2024/03/30 12:09:35;;;;;;;44.83;3.97;;;16.30;56.90;;;;;;5003144;28;20045;-82
2024/03/30 12:12:18;;;;;;;47.85;4.30;;;16.30;56.40;;;;;;5009939;28;20503;-80
2024/03/30 12:14:46;;;;;;;52.42;5.13;;;16.10;57.80;;;;;;5008975;28;20109;-80
2024/03/30 12:17:12;;;;;;;35.90;4.85;;;16.20;56.70;;;;;;5004567;28;20022;-79
2024/03/30 12:19:39;;;;;;;38.33;5.57;;;16.10;56.60;;;;;;5009772;28;20476;-80
2024/03/30 12:22:05;;;;;;;42.47;4.57;;;16.00;56.70;;;;;;5009639;28;20030;-81
2024/03/30 12:24:33;;;;;;;32.53;4.40;;;15.90;56.50;;;;;;5008356;28;20084;-81
2024/03/30 12:26:58;;;;;;;39.25;3.83;;;16.20;53.40;;;;;;5007929;28;20034;-81
2024/03/30 12:29:24;;;;;;;48.55;6.18;;;16.20;53.10;;;;;;5007829;28;20084;-82
2024/03/30 12:31:50;;;;;;;36.33;2.88;;;16.10;54.40;;;;;;5007727;28;20045;-82
2024/03/30 12:34:16;;;;;;;35.03;4.97;;;15.90;56.60;;;;;;5007059;28;20026;-81
2024/03/30 12:36:43;;;;;;;34.42;3.95;;;15.90;56.20;;;;;;5009519;28;20014;-81
2024/03/30 12:39:09;;;;;;;57.63;4.15;;;15.80;56.90;;;;;;5009546;28;20096;-80